• Join FlightAware (Why Join?)
  • Login
  • US Flag 
09:37AM EDT


 

Airport Tracker/Info


-or-


 

Live Flight TrackerFlight Track Log ✈ EJA941 ✈ 16-Aug-2013 ✈ KLEB - KLAX

Flight Track Log - Related Links

Times and Time Zones

All times are in EDT time to prevent confusion due to time zone crossing. See the EJA941 flight status page for this flight to view local times or setup timezone preferences in your user account.

Time Position Orientation Groundspeed Altitude Reporting Facility
EDT Latitude Longitude Course Direction KTS MPH feet Rate Location/Type
04:55PM 43.5925 -72.5606 262° West 391 450 7,900  Level Boston Center
04:56PM 43.5839 -72.6522 263° West 321 369 8,200 2,040 Climbing Boston Center
04:57PM 43.4732 -73.2854 262° West  Level FlightAware Approximate
04:57PM 43.5711 -72.7869 263° West 302 348 12,300  Level Boston Center
04:58PM 43.5581 -72.9100 262° West 309 356 15,200 2,460 Climbing Boston Center
04:59PM 43.5408 -73.0531 261° West 336 387 17,300 1,620 Climbing Boston Center
05:00PM 43.5278 -73.1617 261° West 348 400 18,600 1,560 Climbing Boston Center
05:01PM 43.5122 -73.3047 262° West 355 409 20,400 1,740 Climbing Boston Center
05:02PM 43.4986 -73.4389 262° West 355 409 22,100 1,680 Climbing Boston Center
05:03PM 43.4825 -73.5761 261° West 355 409 23,900 1,680 Climbing Boston Center
05:04PM 43.4500 -73.7100 252° West 360 414 25,600 1,680 Climbing Boston Center
05:05PM 43.3881 -73.8428 237° Southwest 365 420 27,300 1,560 Climbing Boston Center
05:06PM 43.3342 -73.9700 240° Southwest 378 435 28,800 1,500 Climbing Boston Center
05:07PM 43.3053 -74.1119 254° West 378 435 30,300 1,500 Climbing Boston Center
05:08PM 43.2944 -74.2600 264° West 384 442 31,800 1,440 Climbing Boston Center
05:09PM 43.2878 -74.4139 267° West 395 455 33,300 1,320 Climbing Boston Center
05:10PM 43.2767 -74.5647 264° West 400 460 34,800 1,320 Climbing Boston Center
05:11PM 43.2419 -74.7431 255° West 406 467 36,300 1,200 Climbing Boston Center
05:12PM 43.1975 -74.8867 247° West 406 467 37,300 960 Climbing Boston Center
05:13PM 43.1503 -75.0356 247° West 417 480 38,300 960 Climbing Boston Center
05:14PM 43.1053 -75.1844 248° West 422 486 39,300 840 Climbing Boston Center
05:15PM 43.0933 -75.3261 263° West 422 486 40,100 780 Climbing Boston Center
05:16PM 43.1069 -75.4492 279° West 416 479 40,900 960 Climbing Boston Center
05:17PM 43.1206 -75.6375 276° West 415 478 42,100 960 Climbing Boston Center
05:18PM 43.1331 -75.7833 277° West 409 471 42,900 300 Climbing Boston Center
05:20PM 43.1333 -76.0500 270° West 400 460 43,000  Climbing Toronto Center
05:21PM 43.1500 -76.2000 279° West 410 472 43,000  Level Toronto Center
05:22PM 43.1333 -76.3667 262° West 420 483 43,000  Level Toronto Center
05:23PM 43.1167 -76.5333 262° West 420 483 43,000  Level Toronto Center
05:24PM 43.1167 -76.6833 270° West 430 495 43,000  Level Toronto Center
05:25PM 43.0997 -76.9008 264° West 428 493 43,000  Level Cleveland Center
05:26PM 43.0861 -77.0667 264° West 433 498 43,000  Level Cleveland Center
05:27PM 43.0703 -77.2322 263° West 439 505 43,000  Level Cleveland Center
05:28PM 43.0667 -77.4003 268° West 444 511 43,000  Level Cleveland Center
05:29PM 43.0775 -77.5703 275° West 444 511 43,000  Level Cleveland Center
05:30PM 43.0858 -77.7406 274° West 444 511 43,000  Level Cleveland Center
05:31PM 43.0942 -77.9050 274° West 444 511 43,000  Level Cleveland Center
05:32PM 43.1044 -78.0922 274° West 444 511 43,000  Level Cleveland Center
05:33PM 43.1122 -78.2625 274° West 444 511 43,000  Level Cleveland Center
05:34PM 43.1217 -78.4300 274° West 444 511 43,000  Level Cleveland Center
05:35PM 43.1289 -78.6033 273° West 444 511 43,000  Level Cleveland Center
05:36PM 43.1381 -78.7739 274° West 450 518 43,000  Level Cleveland Center
05:37PM 43.1333 -78.8833 267° West 450 518 43,000  Level Toronto Center
05:38PM 43.1333 -79.0667 270° West 450 518 43,000  Level Toronto Center
05:39PM 43.1500 -79.2167 279° West 460 529 43,000  Level Toronto Center
05:40PM 43.1500 -79.4000 270° West 460 529 43,000  Level Toronto Center
05:41PM 43.1500 -79.5667 270° West 460 529 43,000  Level Toronto Center
05:42PM 43.1667 -79.7500 277° West 460 529 43,000  Level Toronto Center
05:43PM 43.1667 -79.9333 270° West 460 529 43,000  Level Toronto Center
05:44PM 43.1833 -80.0833 279° West 460 529 43,000  Level Toronto Center
05:45PM 43.1833 -80.2667 270° West 460 529 43,000  Level Toronto Center
05:46PM 43.1833 -80.4500 270° West 460 529 43,000  Level Toronto Center
05:47PM 43.2000 -80.6333 277° West 470 541 43,000  Level Toronto Center
05:48PM 43.1833 -80.8167 263° West 470 541 43,000  Level Toronto Center
05:49PM 43.1833 -80.9833 270° West 470 541 43,000  Level Toronto Center
05:50PM 43.2000 -81.1667 277° West 470 541 43,000  Level Toronto Center
05:51PM 43.2000 -81.3500 270° West 470 541 43,000  Level Toronto Center
05:52PM 43.2167 -81.5333 277° West 470 541 43,000  Level Toronto Center
05:53PM 43.2167 -81.7167 270° West 470 541 43,000  Level Toronto Center
05:54PM 43.2167 -81.8667 270° West 470 541 43,000  Level Toronto Center
05:55PM 43.2167 -82.0500 270° West 470 541 43,000  Level Toronto Center
05:56PM 43.2167 -82.2333 270° West 470 541 43,000  Level Toronto Center
05:57PM 43.2333 -82.4167 277° West 470 541 43,000  Level Toronto Center
05:58PM 43.2167 -82.6000 263° West 470 541 43,000  Level Toronto Center
05:59PM 43.2153 -82.8564 270° West 474 545 43,000  Level Cleveland Center
06:00PM 43.2053 -83.0328 266° West 474 545 43,000  Level Cleveland Center
06:01PM 43.1972 -83.2147 267° West 479 551 43,000  Level Cleveland Center
06:02PM 43.1886 -83.3964 266° West 479 551 43,000  Level Cleveland Center
06:03PM 43.1781 -83.5753 265° West 479 551 43,000  Level Cleveland Center
06:04PM 43.1689 -83.7544 266° West 479 551 43,000  Level Cleveland Center
06:05PM 43.1556 -83.9386 264° West 479 551 43,000  Level Cleveland Center
06:07PM 43.1167 -84.2333 260° West 480 552 43,000  Level Toronto Center
06:07PM 43.1344 -84.3314 284° West 479 551 43,000  Level Chicago Center
06:08PM 43.1225 -84.5119 265° West 479 551 43,000  Level Chicago Center
06:09PM 43.1106 -84.6936 265° West 480 552 43,000  Level Chicago Center
06:11PM 43.0989 -84.8747 265° West 480 552 43,000  Level Chicago Center
06:12PM 43.0842 -85.0928 265° West 481 554 43,000  Level Chicago Center
06:13PM 43.0708 -85.2739 264° West 480 552 43,000  Level Chicago Center
06:14PM 43.0586 -85.4553 265° West 480 552 43,000  Level Chicago Center
06:15PM 43.0453 -85.6372 264° West 482 555 43,000  Level Chicago Center
06:16PM 43.0308 -85.8175 264° West 479 551 43,000  Level Chicago Center
06:17PM 43.0181 -86.0250 265° West 481 554 43,000  Level Chicago Center
06:18PM 43.0031 -86.2061 264° West 505 581 43,000  Level Chicago Center
06:19PM 42.9875 -86.3908 263° West 497 572 43,000  Level Chicago Center
06:20PM 42.9694 -86.6075 264° West 483 556 43,000  Level Chicago Center
06:21PM 42.9542 -86.7889 263° West 484 557 43,000  Level Chicago Center
06:22PM 42.9394 -86.9731 264° West 489 563 43,000  Level Chicago Center
06:23PM 42.9231 -87.1578 263° West 493 567 43,000  Level Chicago Center
06:24PM 42.9067 -87.3392 263° West 488 562 43,000  Level Chicago Center
06:25PM 42.8881 -87.5522 263° West 485 558 43,000  Level Chicago Center
06:26PM 42.8697 -87.7392 262° West 490 564 43,000  Level Chicago Center
06:27PM 42.8522 -87.9269 263° West 498 573 43,000  Level Chicago Center
06:28PM 42.8350 -88.1128 263° West 491 565 43,000  Level Chicago Center
06:29PM 42.8167 -88.3000 262° West 493 567 43,000  Level Chicago Center
06:30PM 42.7981 -88.4856 262° West 493 567 43,000  Level Chicago Center
06:31PM 42.7769 -88.7019 263° West 491 565 43,000  Level Chicago Center
06:32PM 42.7581 -88.8883 262° West 493 567 43,000  Level Chicago Center
06:33PM 42.7386 -89.0722 262° West 492 566 43,000  Level Chicago Center
06:34PM 42.7117 -89.2564 259° West 493 567 43,000  Level Chicago Center
06:35PM 42.6811 -89.4386 257° West 493 567 43,000  Level Chicago Center
06:36PM 42.6506 -89.6244 257° West 498 573 43,000  Level Chicago Center
06:37PM 42.6131 -89.8383 257° West 499 574 43,000  Level Chicago Center
06:38PM 42.5831 -90.0269 258° West 500 575 43,000  Level Chicago Center
06:39PM 42.5514 -90.2106 257° West 503 579 43,000  Level Chicago Center
06:41PM 42.5194 -90.3919 257° West 501 577 43,000  Level Chicago Center
06:42PM 42.4878 -90.5753 257° West 505 581 43,000  Level Chicago Center
06:43PM 42.4561 -90.7567 257° West 500 575 43,000  Level Chicago Center
06:44PM 42.4167 -90.9775 256° West 505 581 43,000  Level Chicago Center
06:45PM 42.3825 -91.1600 256° West 503 579 43,000  Level Chicago Center
06:46PM 42.3489 -91.3447 256° West 504 580 43,000  Level Chicago Center
06:47PM 42.3136 -91.5311 256° West 511 588 43,000  Level Chicago Center
06:48PM 42.2797 -91.7158 256° West 507 583 43,000  Level Chicago Center
06:49PM 42.2453 -91.8994 256° West 507 583 43,000  Level Chicago Center
06:50PM 42.2025 -92.1208 255° West 510 587 43,000  Level Chicago Center
06:51PM 42.1672 -92.3036 255° West 509 586 43,000  Level Chicago Center
06:52PM 42.1319 -92.4861 255° West 508 585 43,000  Level Chicago Center
06:53PM 42.0958 -92.6664 255° West 505 581 43,000  Level Chicago Center
06:54PM 42.0603 -92.8486 255° West 507 583 43,000  Level Chicago Center
06:55PM 42.0164 -93.0653 255° West 506 582 43,000  Level Chicago Center
06:56PM 41.9803 -93.2456 255° West 505 581 43,000  Level Chicago Center
06:57PM 41.9442 -93.4250 255° West 504 580 43,000  Level Chicago Center
06:58PM 41.9064 -93.6039 254° West 503 579 43,000  Level Chicago Center
06:59PM 41.8700 -93.7847 255° West 506 582 43,000  Level Chicago Center
07:00PM 41.8242 -94.0003 254° West 508 585 43,000  Level Chicago Center
07:01PM 41.7856 -94.1778 254° West 503 579 43,000  Level Chicago Center
07:02PM 41.7478 -94.3572 254° West 504 580 43,000  Level Chicago Center
07:04PM 41.6953 -94.6114 255° West 507 583 43,000  Level Minneapolis Center
07:05PM 41.6547 -94.7939 253° West 512 589 43,000  Level Minneapolis Center
07:06PM 41.6161 -94.9744 254° West 507 583 43,000  Level Minneapolis Center
07:07PM 41.5672 -95.1919 253° West 509 586 43,000  Level Minneapolis Center
07:08PM 41.5261 -95.3750 253° West 514 592 43,000  Level Minneapolis Center
07:09PM 41.4839 -95.5569 253° West 514 592 43,000  Level Minneapolis Center
07:10PM 41.4394 -95.7550 253° West 516 594 43,000  Level Minneapolis Center
07:11PM 41.3983 -95.9367 253° West 514 592 43,000  Level Minneapolis Center
07:12PM 41.3564 -96.1181 253° West 514 592 43,000  Level Minneapolis Center
07:13PM 41.3144 -96.2986 253° West 511 588 43,000  Level Minneapolis Center
07:14PM 41.2719 -96.4814 253° West 510 587 43,000  Level Minneapolis Center
07:15PM 41.2294 -96.6603 253° West 510 587 43,000  Level Minneapolis Center
07:16PM 41.1764 -96.8742 252° West 508 585 43,000  Level Minneapolis Center
07:17PM 41.1333 -97.0550 253° West 512 589 43,000  Level Minneapolis Center
07:18PM 41.0892 -97.2344 252° West 513 590 43,000  Level Minneapolis Center
07:19PM 41.0456 -97.4125 252° West 513 590 43,000  Level Minneapolis Center
07:20PM 41.0014 -97.5925 252° West 513 590 43,000  Level Minneapolis Center
07:21PM 40.9575 -97.7722 252° West 513 590 43,000  Level Minneapolis Center
07:22PM 40.9036 -97.9892 252° West 514 592 43,000  Level Minneapolis Center
07:23PM 40.8575 -98.1686 251° West 514 592 43,000  Level Minneapolis Center
07:24PM 40.8106 -98.3511 251° West 517 595 43,000  Level Minneapolis Center
07:25PM 40.7656 -98.5281 251° West 520 598 43,000  Level Minneapolis Center
07:26PM 40.7169 -98.7167 251° West 520 598 43,000  Level Minneapolis Center
07:27PM 40.6697 -98.8978 251° West 518 596 43,000  Level Minneapolis Center
07:28PM 40.6233 -99.0767 251° West 514 592 43,000  Level Minneapolis Center
07:30PM 40.5767 -99.2539 251° West 512 589 43,000  Level Minneapolis Center
07:31PM 40.5303 -99.4289 251° West 509 586 43,000  Level Denver Center
07:32PM 40.4747 -99.6389 251° West 506 582 43,000  Level Denver Center
07:33PM 40.4278 -99.8119 250° West 503 579 43,000  Level Denver Center
07:34PM 40.3792 -99.9900 250° West 503 579 43,000  Level Denver Center
07:35PM 40.3331 -100.1581 250° West 508 585 43,000  Level Denver Center
07:36PM 40.2794 -100.3525 250° West 507 583 43,000  Level Denver Center
07:37PM 40.2325 -100.5192 250° West 509 586 43,000  Level Denver Center
07:38PM 40.1781 -100.7142 250° West 509 586 43,000  Level Denver Center
07:39PM 40.1322 -100.8814 250° West 509 586 43,000  Level Denver Center
07:40PM 40.0853 -101.0481 250° West 510 587 43,000  Level Denver Center
07:41PM 40.0294 -101.2406 249° West 507 583 43,000  Level Denver Center
07:42PM 39.9814 -101.4078 249° West 511 588 43,000  Level Denver Center
07:43PM 39.9264 -101.6025 250° West 512 589 43,000  Level Denver Center
07:44PM 39.8778 -101.7669 249° West 510 587 43,000  Level Denver Center
07:45PM 39.8214 -101.9553 249° West 502 578 43,000  Level Denver Center
07:46PM 39.7739 -102.1192 249° West 505 581 43,000  Level Denver Center
07:47PM 39.7175 -102.3094 249° West 505 581 43,000  Level Denver Center
07:48PM 39.6700 -102.4706 249° West 500 575 43,000  Level Denver Center
07:49PM 39.6131 -102.6581 249° West 503 579 43,000  Level Denver Center
07:50PM 39.5628 -102.8242 249° West 496 571 43,000  Level Denver Center
07:51PM 39.5111 -102.9908 248° West 499 574 43,000  Level Denver Center
07:52PM 39.4594 -103.1594 248° West 504 580 43,000  Level Denver Center
07:53PM 39.4081 -103.3272 248° West 502 578 43,000  Level Denver Center
07:54PM 39.3561 -103.4942 248° West 501 577 43,000  Level Denver Center
07:55PM 39.2944 -103.6931 248° West 498 573 43,000  Level Denver Center
07:56PM 39.2417 -103.8586 248° West 497 572 43,000  Level Denver Center
07:57PM 39.1897 -104.0228 248° West 494 568 43,000  Level Denver Center
07:58PM 39.1369 -104.1894 248° West 499 574 43,000  Level Denver Center
07:59PM 39.0844 -104.3533 248° West 494 568 43,000  Level Denver Center
08:01PM 39.0311 -104.5186 247° West 498 573 43,000  Level Denver Center
08:02PM 38.9769 -104.6844 247° West 501 577 43,000  Level Denver Center
08:03PM 38.9144 -104.8786 248° West 487 560 43,000  Level Denver Center
08:04PM 38.8600 -105.0425 247° West 494 568 43,000  Level Denver Center
08:05PM 38.8075 -105.2058 248° West 495 570 43,000  Level Denver Center
08:06PM 38.7528 -105.3664 246° West 494 568 43,000  Level Denver Center
08:07PM 38.6986 -105.5286 247° West 493 567 43,000  Level Denver Center
08:08PM 38.6447 -105.6900 247° West 494 568 43,000  Level Denver Center
08:09PM 38.5836 -105.8722 247° West 493 567 43,000  Level Denver Center
08:10PM 38.5300 -106.0267 246° West 497 572 43,000  Level Denver Center
08:11PM 38.4706 -106.2011 247° West 499 574 43,000  Level Denver Center
08:12PM 38.4147 -106.3625 246° West 497 572 43,000  Level Denver Center
08:13PM 38.3586 -106.5244 246° West 499 574 43,000  Level Denver Center
08:14PM 38.2967 -106.7014 246° West 497 572 43,000  Level Denver Center
08:15PM 38.2461 -106.8469 246° West 498 573 43,000  Level Denver Center
08:16PM 38.1775 -107.0417 246° West 500 575 43,000  Level Denver Center
08:17PM 38.1253 -107.1894 246° West 496 571 43,000  Level Denver Center
08:18PM 38.0639 -107.3631 246° West 501 577 43,000  Level Denver Center
08:19PM 38.0003 -107.5381 245° Southwest 494 568 43,000  Level Denver Center
08:20PM 37.9464 -107.6908 246° West 495 570 43,000  Level Denver Center
08:21PM 37.8831 -107.8650 245° Southwest 490 564 43,000  Level Denver Center
08:22PM 37.8367 -107.9911 245° Southwest 494 568 43,000  Level Denver Center
08:23PM 37.7639 -108.1936 246° West 499 574 43,000  Level Denver Center
08:24PM 37.7083 -108.3422 245° Southwest 494 568 43,000  Level Denver Center
08:25PM 37.6450 -108.5181 246° West 493 567 43,000  Level Denver Center
08:26PM 37.5892 -108.6681 245° Southwest 492 566 43,000  Level Denver Center
08:27PM 37.5331 -108.8167 245° Southwest 493 567 43,000  Level Denver Center
08:28PM 37.4692 -108.9850 244° Southwest 483 556 43,000  Level Denver Center
08:29PM 37.4133 -109.1325 245° Southwest 489 563 43,000  Level Denver Center
08:31PM 37.3475 -109.3058 245° Southwest 493 567 43,000  Level Denver Center
08:32PM 37.2906 -109.4550 244° Southwest 494 568 43,000  Level Denver Center
08:33PM 37.2250 -109.6289 245° Southwest 496 571 43,000  Level Denver Center
08:34PM 37.1681 -109.7761 244° Southwest 494 568 43,000  Level Denver Center
08:35PM 37.1025 -109.9422 244° Southwest 481 554 43,000  Level Denver Center
08:36PM 37.0458 -110.0889 244° Southwest 487 560 43,000  Level Denver Center
08:37PM 36.9817 -110.2522 244° Southwest 488 562 43,000  Level Denver Center
08:38PM 36.9225 -110.4042 244° Southwest 486 559 43,000  Level Denver Center
08:39PM 36.8614 -110.5586 244° Southwest 495 570 43,000  Level Denver Center
08:40PM 36.8008 -110.7111 244° Southwest 491 565 43,000  Level Denver Center
08:41PM 36.7267 -110.8944 243° Southwest 493 567 43,000  Level Denver Center
08:42PM 36.6664 -111.0464 244° Southwest 492 566 43,000  Level Denver Center
08:43PM 36.6050 -111.1983 243° Southwest 490 564 43,000  Level Denver Center
08:44PM 36.5447 -111.3489 244° Southwest 488 562 43,000  Level Denver Center
08:45PM 36.4828 -111.5000 243° Southwest 489 563 43,000  Level Denver Center
08:46PM 36.4239 -111.6511 244° Southwest 487 560 43,000  Level Denver Center
08:47PM 36.3633 -111.8019 244° Southwest 485 558 43,000  Level Los Angeles Center
08:48PM 36.3053 -111.9525 244° Southwest 484 557 43,000  Level Los Angeles Center
08:49PM 36.2464 -112.1025 244° Southwest 483 556 43,000  Level Los Angeles Center
08:50PM 36.1897 -112.2425 243° Southwest 491 565 43,000  Level Los Angeles Center
08:51PM 36.1258 -112.4056 244° Southwest 487 560 43,000  Level Los Angeles Center
08:52PM 36.0650 -112.5581 244° Southwest 492 566 43,000  Level Los Angeles Center
08:53PM 35.9794 -112.7303 238° Southwest 492 566 43,000  Level Los Angeles Center
08:54PM 35.9153 -112.8525 237° Southwest 489 563 43,000  Level Los Angeles Center
08:55PM 35.8428 -112.9906 237° Southwest 487 560 43,000  Level Los Angeles Center
08:56PM 35.7572 -113.1583 238° Southwest 489 563 43,000  Level Los Angeles Center
08:57PM 35.6881 -113.2969 238° Southwest 485 558 43,000  Level Los Angeles Center
08:58PM 35.6256 -113.4386 242° Southwest 483 556 43,000  Level Los Angeles Center
08:59PM 35.5683 -113.5842 244° Southwest 482 555 43,000  Level Los Angeles Center
09:00PM 35.4989 -113.7597 244° Southwest 482 555 43,000  Level Los Angeles Center
09:01PM 35.4422 -113.9044 244° Southwest 479 551 43,000  Level Los Angeles Center
09:02PM 35.3847 -114.0475 244° Southwest 481 554 43,000  Level Los Angeles Center
09:03PM 35.3261 -114.1961 244° Southwest 483 556 43,000  Level Los Angeles Center
09:04PM 35.2553 -114.3733 244° Southwest 481 554 43,000  Level Los Angeles Center
09:05PM 35.1947 -114.5222 244° Southwest 486 559 43,000  Level Los Angeles Center
09:07PM 35.1336 -114.6733 244° Southwest 492 566 43,000  Level Los Angeles Center
09:08PM 35.0731 -114.8228 244° Southwest 491 565 43,000  Level Los Angeles Center
09:09PM 35.0136 -114.9706 244° Southwest 486 559 43,000 -480 Level Los Angeles Center
09:10PM 34.9525 -115.1169 243° Southwest 484 557 42,100 -1,620 Descending Los Angeles Center
09:11PM 34.8817 -115.2889 243° Southwest 472 543 39,700 -2,160 Descending Los Angeles Center
09:12PM 34.8214 -115.4347 243° Southwest 479 551 37,700 -2,040 Descending Los Angeles Center
09:13PM 34.7586 -115.5878 244° Southwest 487 560 35,600 -1,980 Descending Los Angeles Center
09:14PM 34.6983 -115.7317 243° Southwest 478 550 33,600 -1,920 Descending Los Angeles Center
09:15PM 34.6397 -115.8714 243° Southwest 469 540 31,700 -1,860 Descending Los Angeles Center
09:16PM 34.5883 -115.9939 243° Southwest 420 483 29,800 -1,860 Descending Los Angeles Center
09:17PM 34.5383 -116.1125 243° Southwest 402 463 27,900 -1,980 Descending Los Angeles Center
09:18PM 34.4883 -116.2294 243° Southwest 393 452 25,800 -1,920 Descending Los Angeles Center
09:19PM 34.4317 -116.3614 243° Southwest 371 427 24,000 -900 Descending Los Angeles Center
09:20PM 34.3847 -116.4708 243° Southwest 366 421 24,000  Level Los Angeles Center
09:21PM 34.3375 -116.5819 243° Southwest 369 425 24,000  Level Los Angeles Center
09:22PM 34.2894 -116.6908 242° Southwest 367 422 24,000  Level Los Angeles Center
09:23PM 34.2428 -116.7994 243° Southwest 365 420 24,000 -720 Level Los Angeles Center
09:24PM 34.1947 -116.9094 242° Southwest 369 425 22,500 -1,800 Descending Los Angeles Center
09:25PM 34.1400 -117.0347 242° Southwest 352 405 20,300 -2,160 Descending Los Angeles Center
09:26PM 34.1167 -117.1000 247° West 354 407 19,200 -1,680 Descending Southern California TRACON
09:27PM 34.0667 -117.2000 239° Southwest 336 387 17,800 -1,440 Descending Southern California TRACON
09:28PM 34.0500 -117.3000 259° West 341 392 16,400 -1,560 Descending Southern California TRACON
09:29PM 34.0333 -117.4167 260° West 326 375 14,700 -1,500 Descending Southern California TRACON
09:30PM 34.0167 -117.5167 259° West 309 356 13,400 -1,260 Descending Southern California TRACON
09:31PM 34.0167 -117.6167 270° West 420 483 12,200 -1,440 Descending Southern California TRACON
09:32PM 34.0000 -117.7333 260° West 301 346 10,600 -1,620 Descending Southern California TRACON
09:33PM 34.0000 -117.8333 270° West 288 331 9,000 -1,620 Descending Southern California TRACON
09:34PM 33.9833 -117.9333 259° West 284 327 7,400 -1,500 Descending Southern California TRACON
09:35PM 33.9667 -118.0000 253° West 234 269 6,000 -1,260 Descending Southern California TRACON
09:36PM 33.9667 -118.0833 270° West 229 264 4,900 -1,200 Descending Southern California TRACON
09:37PM 33.9622 -118.1392 265° West 229 264 3,900 -1,140 Descending Los Angeles Center
09:38PM 33.9547 -118.2069 262° West 216 249 2,900 -960 Descending Los Angeles Center
09:39PM 33.9497 -118.2622 264° West 184 212 2,000 -840 Descending Los Angeles Center
09:40PM 33.9436 -118.3192 263° West 176 203 1,200 -780 Descending Los Angeles Center
09:41PM 33.9400 -118.3714 265° West 143 165 400 -540 Descending Los Angeles Center
09:42PM 33.9358 -118.4111 263° West 139 160 200 -240 Descending Los Angeles Center
09:44PM 33.9333 -118.4000 North  Level FlightAware Approximate